Pagrindinis puslapis
METAR-TAF:

METAR-TAF

Oro uostai :

Ušuaja, Argentina

platuma: 54-48S, ilguma: 068-19W, Aukštis: 16 m

Dabartinis oras

Ataskaita buvo paskelbta 1 valandą ir 0 minutes, ne 11:00 UTC
Vėjas 6 kt iš Pietryčių
Temperatūra 7°C
Drėgmė 76%
Slėgis 1000 hPa
Matomumas 10 km arba daugiau
Mažai debesys ne aukštis 3500 ft
Su prošvaistėmis ne aukštis 8000 ft
Su prošvaistėmis ne aukštis 20000 ft

METAR: SAWH 301100Z 13006KT 9999 FEW035 BKN080 BKN200 07/03 Q1000

Laikas: 09:00 (12:00 UTC)

Prognozė

Ataskaita buvo paskelbta 1 valandą ir 0 minutes, ne 11:00 UTC
Prognozė galioja nuo 30 metu 12 UTC su 01 metu 12 UTC
Vėjas 10 kt iš Šiaurės Vakarų su gūsio iki 20 kt
Matomumas 10 km arba daugiau
Išsisklaidę debesys ne aukštis 3500 ft
Išsisklaidę debesys ne aukštis 8000 ft
Laikinai
nuo 30 metu 15 UTC su 30 metu 17 UTC
Vėjas 15 kt iš Šiaurės Vakarų su gūsio iki 30 kt

TAF: SAWH 301100Z 3012/0112 32010G20KT 9999 SCT035 SCT080 TX14/3020Z TN07/0110Z TEMPO 3015/3017 32015G30KT

Orai ataskaitas ir orų prognozės (METAR, TAF).

turimą stotys yra geltonos ir raudonos taškus žemėlapyje.

Perkelti pele per norėdami pamatyti stoties vardą.

Tada spustelėkite, norėdami matyti oro stebėjimo ir prognozės.

Norėdami pakeisti žemėlapį: spustelėkite ant žalios mygtukų su juodo kryžiaus žemyn,; žalią mygtuką su brūkšneliu, jei norite nutolinti; arba žalių rodyklių gretimoms žemėlapius.


METAR-TAF: